Time;durP1;ratioP1;P1;durP2;ratioP2;P2;SDS_P1;SDS_P2;PMS_P1;PMS_P2;Temp;Humidity;BMP_temperature;BMP_pressure;BME280_temperature;BME280_humidity;BME280_pressure;Samples;Min_cycle;Max_cycle;Signal;HPM_P1;HPM_P2
2022/03/15 00:05:26;;;;;;;26.00;12.03;;;;;;;7.65;36.08;100601.14;4404824;79;28452;-75
2022/03/15 00:11:27;;;;;;;27.48;11.57;;;;;;;7.40;37.17;100597.22;4363501;80;28504;-74
2022/03/15 00:17:32;;;;;;;26.45;12.28;;;;;;;7.13;37.18;100596.60;4374707;80;28540;-74
2022/03/15 00:23:32;;;;;;;30.88;12.78;;;;;;;7.01;36.72;100594.80;4377076;79;28481;-74
2022/03/15 00:29:35;;;;;;;24.87;11.57;;;;;;;6.98;37.41;100602.66;4347712;81;28527;-75
2022/03/15 00:35:37;;;;;;;23.20;10.68;;;;;;;6.77;38.48;100602.34;4356514;81;28496;-74
2022/03/15 00:41:38;;;;;;;29.77;11.85;;;;;;;6.92;37.62;100603.83;4359902;79;28447;-75
2022/03/15 00:47:39;;;;;;;27.35;11.63;;;;;;;6.86;38.10;100604.49;4422572;79;43434;-73
2022/03/15 00:53:41;;;;;;;27.13;11.70;;;;;;;6.64;38.54;100601.48;4370598;81;43429;-74
2022/03/15 00:59:43;;;;;;;23.55;10.38;;;;;;;6.47;39.53;100603.32;4373640;80;43631;-74
2022/03/15 01:05:44;;;;;;;26.23;11.73;;;;;;;6.51;38.83;100600.16;4377980;79;43293;-74
2022/03/15 01:11:48;;;;;;;24.18;10.78;;;;;;;6.30;39.54;100592.63;4358005;81;28519;-74
2022/03/15 01:17:49;;;;;;;25.65;11.30;;;;;;;6.55;38.89;100587.30;4405138;80;28547;-74
2022/03/15 01:23:51;;;;;;;29.50;11.18;;;;;;;6.44;39.10;100584.95;4414003;80;28466;-75
2022/03/15 01:29:54;;;;;;;26.23;10.75;;;;;;;6.25;39.83;100581.11;4363748;81;28568;-76
2022/03/15 01:35:55;;;;;;;23.32;10.70;;;;;;;6.25;39.29;100574.91;4333699;82;28490;-74
2022/03/15 01:41:56;;;;;;;22.73;10.98;;;;;;;6.09;39.44;100577.05;4351820;80;44436;-74
2022/03/15 01:47:57;;;;;;;23.42;10.90;;;;;;;5.96;39.32;100570.33;4352540;82;42953;-74
2022/03/15 01:54:00;;;;;;;23.95;10.40;;;;;;;5.97;38.91;100563.98;4383358;79;28532;-74
2022/03/15 02:00:02;;;;;;;22.90;10.45;;;;;;;6.12;38.67;100564.70;4356564;79;44525;-73
2022/03/15 02:06:05;;;;;;;21.50;9.90;;;;;;;6.05;39.23;100563.19;4393712;80;44461;-73
2022/03/15 02:12:08;;;;;;;22.75;10.72;;;;;;;5.94;40.17;100566.98;4432512;80;44479;-73
2022/03/15 02:18:09;;;;;;;25.92;11.08;;;;;;;5.89;40.03;100567.96;4404898;79;43394;-73
2022/03/15 02:24:11;;;;;;;25.40;10.70;;;;;;;5.92;39.76;100572.97;4398491;80;43289;-73
2022/03/15 02:30:13;;;;;;;23.70;10.55;;;;;;;5.66;40.41;100569.89;4383703;80;44062;-75
2022/03/15 02:36:16;;;;;;;26.25;10.93;;;;;;;5.68;40.56;100579.91;4378852;80;43069;-74
2022/03/15 02:42:18;;;;;;;28.32;11.55;;;;;;;5.72;40.19;100583.09;4404155;80;43405;-74
2022/03/15 02:48:19;;;;;;;27.95;12.45;;;;;;;5.54;40.64;100592.53;4394663;80;43451;-74
2022/03/15 02:54:20;;;;;;;28.25;11.80;;;;;;;5.77;40.59;100590.10;4411395;80;43448;-74
2022/03/15 03:00:22;;;;;;;28.05;12.13;;;;;;;5.66;40.84;100590.39;4416194;80;43376;-74
2022/03/15 03:06:24;;;;;;;28.15;11.20;;;;;;;5.68;40.78;100599.09;4411352;80;43392;-74
2022/03/15 03:12:26;;;;;;;30.05;11.68;;;;;;;5.66;41.14;100596.58;4372589;80;43452;-75
2022/03/15 03:18:32;;;;;;;26.60;11.68;;;;;;;5.64;41.31;100605.25;4390049;80;43369;-75
2022/03/15 03:24:34;;;;;;;29.40;13.03;;;;;;;7.25;38.75;100601.95;4398883;80;43382;-77
2022/03/15 03:30:37;;;;;;;28.47;11.83;;;;;;;7.29;39.18;100598.44;4429563;80;43440;-75
2022/03/15 03:36:39;;;;;;;29.40;12.45;;;;;;;7.25;39.20;100603.78;4443414;79;43457;-75
2022/03/15 03:42:40;;;;;;;26.60;13.18;;;;;;;7.38;38.76;100601.40;4388353;81;43030;-73
2022/03/15 03:48:42;;;;;;;34.48;12.75;;;;;;;7.48;38.56;100612.41;4386316;80;44158;-73
2022/03/15 03:54:43;;;;;;;28.87;12.58;;;;;;;5.57;42.22;100603.72;4417793;80;43408;-74
2022/03/15 04:00:44;;;;;;;29.50;12.63;;;;;;;5.32;43.27;100593.42;4424876;80;43447;-75
2022/03/15 04:06:46;;;;;;;26.33;11.75;;;;;;;5.10;44.38;100596.96;4404753;80;43034;-75
2022/03/15 04:12:47;;;;;;;27.52;11.78;;;;;;;4.84;44.88;100583.59;4427015;80;43937;-75
2022/03/15 04:18:49;;;;;;;25.65;12.20;;;;;;;4.83;45.51;100581.44;4427024;80;42881;-74
2022/03/15 04:24:50;;;;;;;26.48;11.73;;;;;;;4.80;45.29;100583.09;4418227;80;43321;-74
2022/03/15 04:30:52;;;;;;;26.17;11.35;;;;;;;4.93;45.31;100589.32;4458244;80;43282;-74
2022/03/15 04:36:53;;;;;;;26.55;12.40;;;;;;;4.96;46.03;100596.18;4440836;79;43097;-74
2022/03/15 04:42:54;;;;;;;40.35;16.15;;;;;;;4.95;45.68;100591.36;4445578;80;44479;-75
2022/03/15 04:48:56;;;;;;;57.48;22.62;;;;;;;5.03;46.71;100605.23;4450953;80;44104;-74
2022/03/15 04:54:57;;;;;;;51.48;21.55;;;;;;;4.78;47.98;100617.02;4430660;80;44060;-74
2022/03/15 05:00:59;;;;;;;41.83;17.80;;;;;;;4.93;48.55;100607.98;4449519;80;44453;-74
2022/03/15 05:07:00;;;;;;;42.62;18.25;;;;;;;4.87;47.70;100600.63;4456923;80;43195;-74
2022/03/15 05:13:02;;;;;;;34.20;14.87;;;;;;;4.91;47.30;100602.48;4459485;80;44441;-75
2022/03/15 05:19:03;;;;;;;61.95;26.57;;;;;;;4.90;46.89;100600.30;4447308;79;43258;-74
2022/03/15 05:25:06;;;;;;;51.25;21.93;;;;;;;4.87;47.46;100597.45;4441484;79;43589;-74
2022/03/15 05:31:08;;;;;;;49.23;19.77;;;;;;;5.02;47.61;100591.05;4432785;79;44110;-74
2022/03/15 05:37:09;;;;;;;43.42;19.37;;;;;;;5.48;45.97;100584.66;4458403;80;43783;-75
2022/03/15 05:43:11;;;;;;;45.25;18.77;;;;;;;5.67;45.24;100594.25;4459860;80;43741;-74
2022/03/15 05:49:12;;;;;;;42.83;18.12;;;;;;;5.66;46.03;100587.23;4459012;80;43188;-75
2022/03/15 05:55:14;;;;;;;42.90;19.23;;;;;;;5.82;45.57;100592.28;4445756;79;43806;-77
2022/03/15 06:01:19;;;;;;;41.68;18.27;;;;;;;5.63;46.44;100597.39;4437585;80;43314;-77
2022/03/15 06:07:20;;;;;;;48.87;18.97;;;;;;;5.78;46.74;100605.14;4441039;80;28491;-79
2022/03/15 06:13:23;;;;;;;54.38;21.07;;;;;;;6.03;45.79;100599.91;4428470;80;44058;-79
2022/03/15 06:19:25;;;;;;;45.25;19.85;;;;;;;6.52;45.00;100594.32;4437805;80;43767;-77
2022/03/15 06:25:27;;;;;;;49.33;20.77;;;;;;;6.64;44.80;100595.66;4438974;80;28545;-79
2022/03/15 06:31:30;;;;;;;46.70;19.82;;;;;;;6.64;44.95;100598.33;4420747;80;28481;-86
2022/03/15 06:37:32;;;;;;;41.23;18.75;;;;;;;6.84;44.81;100595.33;4434564;80;43274;-86
2022/03/15 06:43:34;;;;;;;41.63;19.02;;;;;;;7.23;44.10;100599.92;4454039;80;28534;-79
2022/03/15 06:49:35;;;;;;;46.28;18.75;;;;;;;7.43;43.53;100591.52;4453939;80;28535;-80
2022/03/15 06:55:37;;;;;;;43.23;19.15;;;;;;;7.67;43.97;100587.92;4437692;80;28453;-80
2022/03/15 07:01:39;;;;;;;39.53;18.05;;;;;;;8.26;42.67;100587.62;4435792;80;28439;-79
2022/03/15 07:07:40;;;;;;;37.90;18.62;;;;;;;8.56;41.88;100593.96;4432046;80;28519;-80
2022/03/15 07:13:42;;;;;;;47.13;19.95;;;;;;;8.87;41.08;100596.24;4455387;80;28505;-84
2022/03/15 07:19:43;;;;;;;50.45;20.52;;;;;;;9.05;40.91;100595.38;4391524;80;28489;-81
2022/03/15 07:25:44;;;;;;;43.52;20.57;;;;;;;9.35;40.23;100594.06;4398454;81;28483;-81
2022/03/15 07:31:46;;;;;;;41.23;19.02;;;;;;;9.75;39.34;100596.97;4393770;81;28528;-82
2022/03/15 07:37:53;;;;;;;45.83;19.37;;;;;;;10.04;39.11;100596.07;4385444;79;28523;-81
2022/03/15 07:43:55;;;;;;;46.10;17.25;;;;;;;10.39;38.42;100590.03;4378245;80;28536;-82
2022/03/15 07:49:56;;;;;;;31.57;15.30;;;;;;;11.00;37.25;100579.31;4355262;81;28441;-81
2022/03/15 07:56:01;;;;;;;32.88;15.45;;;;;;;11.41;36.41;100575.03;4349708;81;28540;-81
2022/03/15 08:02:04;;;;;;;27.95;13.48;;;;;;;11.76;35.76;100570.08;4387122;80;28449;-81
2022/03/15 08:08:07;;;;;;;18.75;8.68;;;;;;;12.18;34.61;100564.66;4388063;81;28535;-81
2022/03/15 08:14:09;;;;;;;19.57;10.18;;;;;;;12.59;33.21;100570.92;4395736;80;28533;-81
2022/03/15 08:20:16;;;;;;;18.35;9.75;;;;;;;12.89;32.95;100566.47;4393390;80;28476;-81
2022/03/15 08:26:15;;;;;;;18.73;10.35;;;;;;;13.19;32.46;100552.51;4382539;79;28510;-82
2022/03/15 08:32:16;;;;;;;19.07;9.85;;;;;;;13.21;32.57;100548.25;4400909;81;28516;-81
2022/03/15 08:38:18;;;;;;;23.40;10.55;;;;;;;13.71;32.25;100549.05;4379675;79;28522;-82
2022/03/15 08:44:21;;;;;;;20.37;10.58;;;;;;;13.99;30.92;100538.92;4387097;81;28496;-81
2022/03/15 08:50:22;;;;;;;24.47;10.72;;;;;;;14.17;30.63;100533.61;4404363;81;28477;-80
2022/03/15 08:56:24;;;;;;;21.87;10.90;;;;;;;14.22;30.92;100531.09;4404215;81;28473;-81
2022/03/15 09:02:25;;;;;;;20.77;10.60;;;;;;;14.51;29.99;100521.20;4405815;80;28430;-81
2022/03/15 09:08:26;;;;;;;21.75;10.43;;;;;;;14.93;30.05;100523.33;4397149;81;28524;-82
2022/03/15 09:14:27;;;;;;;21.85;11.08;;;;;;;15.10;29.93;100518.19;4385807;81;28532;-82
2022/03/15 09:20:29;;;;;;;21.05;9.75;;;;;;;15.33;30.31;100506.66;4408174;80;28468;-82
2022/03/15 09:26:32;;;;;;;18.42;8.95;;;;;;;15.46;29.51;100499.41;4408529;80;28461;-82
2022/03/15 09:32:33;;;;;;;17.60;9.15;;;;;;;15.63;29.39;100489.30;4390795;81;28481;-81
2022/03/15 09:38:35;;;;;;;21.73;9.90;;;;;;;15.51;29.02;100474.33;4391509;81;28524;-82
2022/03/15 09:44:40;;;;;;;18.77;9.83;;;;;;;15.71;29.16;100474.08;4384512;80;28496;-82
2022/03/15 09:50:42;;;;;;;16.73;9.18;;;;;;;15.97;28.93;100465.28;4385539;79;28499;-82
2022/03/15 09:56:43;;;;;;;17.52;9.50;;;;;;;15.96;29.05;100461.75;4389291;81;28464;-82
2022/03/15 10:02:46;;;;;;;17.92;9.55;;;;;;;16.15;28.84;100453.00;4377105;80;28500;-82
2022/03/15 10:08:47;;;;;;;13.98;8.68;;;;;;;16.37;28.70;100442.12;4349592;81;28546;-81
2022/03/15 10:14:49;;;;;;;19.87;9.33;;;;;;;16.48;28.72;100429.59;4388752;81;28450;-81
2022/03/15 10:20:50;;;;;;;16.32;9.65;;;;;;;16.80;28.46;100419.70;4370302;81;28762;-81
2022/03/15 10:26:55;;;;;;;17.10;8.40;;;;;;;17.04;28.18;100408.84;4393997;81;28438;-81
2022/03/15 10:32:58;;;;;;;13.03;7.83;;;;;;;17.45;28.59;100397.92;4372713;81;28481;-81
2022/03/15 10:39:00;;;;;;;13.80;8.13;;;;;;;17.52;29.02;100385.83;4330811;81;28523;-82
2022/03/15 10:45:01;;;;;;;14.58;7.50;;;;;;;17.50;28.04;100383.89;4357622;81;28475;-82
2022/03/15 10:51:17;;;;;;;11.88;7.35;;;;;;;17.70;27.76;100369.01;4377184;81;28487;-82
2022/03/15 10:57:15;;;;;;;14.73;7.53;;;;;;;18.06;27.64;100362.80;4334359;81;28501;-81
2022/03/15 11:03:23;;;;;;;12.78;8.10;;;;;;;18.10;27.75;100353.08;4372153;81;28497;-80
2022/03/15 11:09:29;;;;;;;16.42;8.08;;;;;;;17.93;27.68;100353.59;4365639;79;28471;-81
2022/03/15 11:15:30;;;;;;;13.53;7.92;;;;;;;17.88;27.90;100343.45;4375865;81;28496;-82
2022/03/15 11:21:35;;;;;;;13.25;8.05;;;;;;;18.25;27.42;100335.31;4367835;80;28526;-81
2022/03/15 11:27:40;;;;;;;11.22;7.53;;;;;;;18.53;27.19;100318.55;4368932;81;28525;-82
2022/03/15 11:33:47;;;;;;;13.13;8.03;;;;;;;18.47;27.60;100304.05;4371047;81;28509;-82
2022/03/15 11:39:50;;;;;;;12.73;7.72;;;;;;;18.39;27.71;100290.34;4351471;81;29104;-82
2022/03/15 11:46:16;;;;;;;15.32;8.10;;;;;;;18.90;27.22;100283.01;4350962;79;28526;-82
2022/03/15 11:52:23;;;;;;;15.75;7.90;;;;;;;18.88;27.45;100270.19;4378406;81;28518;-82
2022/03/15 11:58:28;;;;;;;13.48;7.28;;;;;;;18.80;27.23;100263.30;4388890;81;28462;-82
2022/03/15 12:04:31;;;;;;;15.80;7.85;;;;;;;18.90;27.26;100241.61;4371852;81;28537;-83
2022/03/15 12:10:37;;;;;;;12.75;7.75;;;;;;;18.85;27.36;100236.63;4388789;81;28449;-83
2022/03/15 12:16:42;;;;;;;15.70;7.33;;;;;;;19.16;26.78;100228.23;4360946;79;28488;-82
2022/03/15 12:22:47;;;;;;;11.88;6.95;;;;;;;19.41;26.74;100213.72;4410235;80;35614;-82
2022/03/15 12:29:03;;;;;;;12.85;6.83;;;;;;;19.27;26.46;100226.44;4402438;80;28460;-81
2022/03/15 12:35:08;;;;;;;12.23;6.85;;;;;;;19.58;26.39;100200.75;4432677;80;28458;-82
2022/03/15 12:41:10;;;;;;;13.40;6.67;;;;;;;19.66;26.42;100191.25;4425633;80;28461;-81
2022/03/15 12:47:13;;;;;;;12.28;6.92;;;;;;;19.67;26.28;100179.77;4413432;80;28470;-82
2022/03/15 12:53:15;;;;;;;12.25;7.37;;;;;;;19.71;26.10;100171.36;4409457;80;28491;-82
2022/03/15 12:59:24;;;;;;;12.30;7.08;;;;;;;19.86;26.25;100156.98;4417533;80;28464;-82
2022/03/15 13:05:28;;;;;;;12.73;7.47;;;;;;;19.79;26.04;100149.84;4412168;80;28474;-82
2022/03/15 13:11:33;;;;;;;12.90;7.20;;;;;;;19.75;26.17;100141.92;4421494;80;28529;-82
2022/03/15 13:17:37;;;;;;;12.00;6.87;;;;;;;19.69;25.94;100134.78;4385506;80;28562;-82
2022/03/15 13:23:42;;;;;;;11.83;6.67;;;;;;;20.18;25.55;100121.91;4372038;81;28551;-82
2022/03/15 13:29:44;;;;;;;13.03;7.20;;;;;;;20.01;26.01;100112.02;4394566;81;28446;-82
2022/03/15 13:35:51;;;;;;;11.43;6.37;;;;;;;20.28;25.48;100111.02;4373137;81;35787;-82
2022/03/15 13:41:53;;;;;;;12.90;7.15;;;;;;;21.29;24.77;100099.27;4348121;81;28525;-82
2022/03/15 13:47:55;;;;;;;12.63;7.78;;;;;;;20.41;24.99;100103.38;4368920;81;28534;-81
2022/03/15 13:54:12;;;;;;;12.10;6.87;;;;;;;20.29;25.44;100100.36;4368473;81;28558;-81
2022/03/15 14:00:18;;;;;;;11.68;7.15;;;;;;;20.35;25.57;100095.73;4387616;81;28529;-81
2022/03/15 14:06:22;;;;;;;12.53;7.15;;;;;;;20.22;25.26;100089.44;4347102;81;28494;-81
2022/03/15 14:12:31;;;;;;;12.03;7.00;;;;;;;20.19;25.37;100077.14;4392516;81;28523;-81
2022/03/15 14:18:32;;;;;;;14.30;7.17;;;;;;;20.15;25.19;100073.28;4411041;80;28457;-81
2022/03/15 14:24:34;;;;;;;10.98;6.75;;;;;;;20.15;25.68;100076.02;4412353;80;28464;-82
2022/03/15 14:30:38;;;;;;;11.73;7.00;;;;;;;19.78;25.30;100073.17;4439620;80;28544;-81
2022/03/15 14:36:41;;;;;;;11.60;6.58;;;;;;;20.23;25.08;100063.77;4373959;80;28596;-82
2022/03/15 14:42:50;;;;;;;12.23;7.37;;;;;;;20.33;25.10;100058.32;4366254;81;28452;-81
2022/03/15 14:48:49;;;;;;;;;;;;;;;20.43;25.04;100044.67;4401526;80;28461;-81
2022/03/15 14:54:50;;;;;;;10.70;6.70;;;;;;;20.66;24.41;100037.02;4364923;80;20236;-82
2022/03/15 15:00:54;;;;;;;12.07;7.30;;;;;;;20.53;24.73;100029.39;4422856;80;28535;-81
2022/03/15 15:06:55;;;;;;;12.28;7.12;;;;;;;20.36;25.05;100018.70;4408043;80;28500;-81
2022/03/15 15:12:57;;;;;;;12.20;6.55;;;;;;;20.44;25.07;100020.90;4407972;80;28498;-81
2022/03/15 15:19:00;;;;;;;12.55;7.40;;;;;;;20.45;24.88;100012.44;4366467;80;28540;-81
2022/03/15 15:25:02;;;;;;;13.10;7.80;;;;;;;20.30;25.28;100006.96;4437374;80;28552;-82
2022/03/15 15:31:03;;;;;;;14.10;7.45;;;;;;;20.17;25.31;100008.34;4423008;80;28515;-80
2022/03/15 15:37:04;;;;;;;17.57;7.67;;;;;;;20.11;25.44;99997.97;4437448;80;28527;-81
2022/03/15 15:43:09;;;;;;;15.98;8.28;;;;;;;20.03;25.46;99983.48;4397017;80;28477;-81
2022/03/15 15:49:13;;;;;;;14.58;7.87;;;;;;;19.82;26.06;99984.78;4412454;80;28472;-80
2022/03/15 15:55:16;;;;;;;14.03;8.28;;;;;;;19.57;26.22;99989.62;4410289;80;28531;-83
2022/03/15 16:01:25;;;;;;;13.25;7.85;;;;;;;19.33;26.54;99983.28;4405313;80;28480;-85
2022/03/15 16:07:39;;;;;;;14.95;7.72;;;;;;;19.38;26.65;99975.10;4429079;80;28497;-88
2022/03/15 16:13:36;;;;;;;14.07;7.75;;;;;;;19.11;26.95;99980.72;4417428;80;43992;-84
2022/03/15 16:19:37;;;;;;;20.45;7.87;;;;;;;19.00;27.11;99967.53;4406092;80;28466;-85
2022/03/15 16:25:39;;;;;;;16.07;7.92;;;;;;;19.03;27.04;99964.33;4386333;79;28536;-90
2022/03/15 16:31:46;;;;;;;17.85;7.83;;;;;;;18.75;27.42;99965.79;4361885;79;28477;-86
2022/03/15 16:37:48;;;;;;;15.85;8.63;;;;;;;18.54;27.77;99958.02;4359232;81;28485;-83
2022/03/15 16:43:50;;;;;;;15.08;8.85;;;;;;;18.30;28.05;99959.75;4390327;80;28500;-86
2022/03/15 16:49:52;;;;;;;16.40;8.53;;;;;;;18.15;28.30;99959.61;4384070;79;28531;-85
2022/03/15 16:55:53;;;;;;;20.92;8.18;;;;;;;18.01;28.63;99950.49;4389728;79;28528;-86
2022/03/15 17:01:54;;;;;;;18.65;8.43;;;;;;;17.98;28.70;99944.22;4369391;79;28497;-83
2022/03/15 17:07:56;;;;;;;16.87;8.90;;;;;;;17.73;29.18;99945.59;4393816;79;28488;-81
2022/03/15 17:13:57;;;;;;;20.65;8.55;;;;;;;17.60;29.28;99944.12;4383532;79;28531;-81
2022/03/15 17:20:00;;;;;;;16.10;8.75;;;;;;;17.46;29.34;99945.06;4413300;79;28541;-81
2022/03/15 17:26:04;;;;;;;18.20;8.05;;;;;;;17.26;29.76;99941.03;4433777;80;28540;-80
2022/03/15 17:32:08;;;;;;;19.12;9.75;;;;;;;17.05;29.91;99935.06;4431025;80;28521;-82
2022/03/15 17:38:09;;;;;;;19.55;9.78;;;;;;;17.03;30.00;99923.63;4428829;80;28528;-82
2022/03/15 17:44:11;;;;;;;24.40;11.33;;;;;;;16.80;30.33;99909.99;4426683;80;28519;-83
2022/03/15 17:50:14;;;;;;;27.60;12.80;;;;;;;16.78;30.49;99897.73;4432811;80;28503;-82
2022/03/15 17:56:21;;;;;;;25.52;12.28;;;;;;;16.61;30.71;99891.83;4427904;80;28517;-85
2022/03/15 18:02:31;;;;;;;23.40;11.45;;;;;;;16.54;31.37;99881.13;4429386;80;28557;-85
2022/03/15 18:08:33;;;;;;;24.95;12.33;;;;;;;16.00;31.83;99876.27;4420601;80;28501;-85
2022/03/15 18:14:39;;;;;;;25.40;12.82;;;;;;;15.84;32.00;99863.77;4428689;80;28535;-84
2022/03/15 18:20:41;;;;;;;25.90;14.00;;;;;;;15.89;31.77;99863.03;4415131;79;28525;-85
2022/03/15 18:26:43;;;;;;;29.20;14.15;;;;;;;16.47;31.02;99853.88;4385291;79;28475;-85
2022/03/15 18:32:44;;;;;;;23.45;12.23;;;;;;;16.28;31.16;99856.87;4397672;79;28473;-86
2022/03/15 18:38:46;;;;;;;26.60;13.20;;;;;;;16.21;31.10;99846.75;4386133;79;28559;-86
2022/03/15 18:44:49;;;;;;;28.87;13.83;;;;;;;16.21;31.13;99839.96;4373583;79;28497;-84
2022/03/15 18:50:54;;;;;;;30.60;15.65;;;;;;;16.20;31.18;99828.83;4374792;79;28485;-84
2022/03/15 18:56:58;;;;;;;30.72;16.65;;;;;;;16.09;31.45;99823.25;4374294;79;28552;-85
2022/03/15 19:03:01;;;;;;;33.23;16.48;;;;;;;16.08;31.33;99818.06;4373400;79;28499;-84
2022/03/15 19:09:02;;;;;;;32.65;16.02;;;;;;;16.05;31.42;99814.50;4380726;79;28546;-83
2022/03/15 19:15:05;;;;;;;35.23;18.00;;;;;;;16.14;31.31;99791.28;4368904;79;28524;-86
2022/03/15 19:21:07;;;;;;;33.98;16.75;;;;;;;16.08;31.57;99788.23;4371905;79;28504;-83
2022/03/15 19:27:09;;;;;;;36.05;17.82;;;;;;;16.13;31.62;99784.22;4376716;79;28492;-84
2022/03/15 19:33:12;;;;;;;35.52;18.77;;;;;;;15.75;31.97;99778.48;4383230;79;28508;-81
2022/03/15 19:39:17;;;;;;;42.95;20.08;;;;;;;15.65;32.35;99778.33;4390784;79;28564;-82
2022/03/15 19:45:22;;;;;;;46.00;23.75;;;;;;;15.53;32.63;99775.72;4389336;81;28536;-79
2022/03/15 19:51:23;;;;;;;48.60;23.75;;;;;;;15.26;32.99;99752.79;4415667;79;28470;-83
2022/03/15 19:57:31;;;;;;;45.52;22.73;;;;;;;15.23;33.01;99728.88;4348712;80;28549;-80
2022/03/15 20:03:32;;;;;;;44.63;23.95;;;;;;;15.28;33.30;99707.83;4364203;80;28500;-82
2022/03/15 20:09:31;;;;;;;55.70;26.82;;;;;;;15.03;33.85;99708.50;4353413;80;28598;-83
2022/03/15 20:15:37;;;;;;;54.77;27.60;;;;;;;14.67;34.11;99697.02;4369021;81;28517;-84
2022/03/15 20:21:37;;;;;;;54.48;26.20;;;;;;;14.55;34.36;99686.77;4377612;80;28515;-81
2022/03/15 20:27:39;;;;;;;56.70;28.50;;;;;;;14.44;34.88;99670.34;4373174;80;28462;-81
2022/03/15 20:33:41;;;;;;;60.05;28.65;;;;;;;14.44;34.99;99674.41;4359941;80;28537;-82
2022/03/15 20:39:44;;;;;;;64.70;28.83;;;;;;;14.56;34.69;99655.40;4351808;80;28511;-84
2022/03/15 20:45:47;;;;;;;57.17;28.35;;;;;;;14.62;34.69;99644.97;4372844;80;28532;-87
2022/03/15 20:51:53;;;;;;;62.48;29.67;;;;;;;14.49;35.02;99657.45;4372594;80;28530;-85
2022/03/15 20:57:55;;;;;;;61.50;29.35;;;;;;;14.27;35.53;99651.88;4374405;80;28513;-82
2022/03/15 21:04:05;;;;;;;58.98;29.82;;;;;;;14.16;35.67;99652.19;4367767;80;28494;-85
2022/03/15 21:10:00;;;;;;;61.53;30.17;;;;;;;14.14;35.83;99657.86;4365161;80;28531;-84
2022/03/15 21:16:06;;;;;;;58.30;29.12;;;;;;;14.05;35.95;99654.69;4374372;80;28500;-85
2022/03/15 21:22:07;;;;;;;53.67;27.87;;;;;;;14.15;35.54;99670.83;4347956;81;28537;-84
2022/03/15 21:28:09;;;;;;;49.60;26.30;;;;;;;14.24;35.64;99680.77;4337828;82;28506;-86
2022/03/15 21:34:13;;;;;;;51.75;25.50;;;;;;;14.10;35.56;99670.20;4320690;82;28518;-84
2022/03/15 21:40:16;;;;;;;49.00;25.15;;;;;;;14.06;35.71;99664.98;4350749;81;28530;-83
2022/03/15 21:46:18;;;;;;;49.60;25.95;;;;;;;14.09;35.85;99665.85;4334146;81;28502;-84
2022/03/15 21:52:19;;;;;;;50.08;25.50;;;;;;;14.00;35.67;99659.17;4341136;82;28502;-83
2022/03/15 21:58:33;;;;;;;58.70;26.07;;;;;;;13.92;36.30;99647.69;4334679;82;28500;-82
2022/03/15 22:04:33;;;;;;;53.55;25.50;;;;;;;13.76;36.76;99654.65;4356264;80;28489;-83
2022/03/15 22:10:34;;;;;;;55.35;26.25;;;;;;;13.60;36.72;99637.28;4418068;79;28556;-85
2022/03/15 22:16:36;;;;;;;49.93;25.05;;;;;;;13.54;37.22;99617.95;4356253;80;28472;-83
2022/03/15 22:22:37;;;;;;;56.73;27.27;;;;;;;13.38;37.40;99602.74;4443408;78;28528;-82
2022/03/15 22:28:47;;;;;;;57.60;28.52;;;;;;;13.26;38.12;99578.95;4389027;79;28525;-82
2022/03/15 23:18:51;;;;;;;52.67;27.67;;;;;;;13.24;38.51;99516.27;4373092;81;28489;-86
2022/03/15 23:24:52;;;;;;;56.75;27.93;;;;;;;13.13;38.54;99505.78;4371507;79;28483;-85
2022/03/15 23:30:55;;;;;;;54.30;27.27;;;;;;;13.24;38.57;99503.59;4367120;79;28605;-87
2022/03/15 23:36:57;;;;;;;51.53;26.12;;;;;;;13.33;38.87;99497.80;4364756;79;28580;-83
2022/03/15 23:42:59;;;;;;;51.50;26.75;;;;;;;13.30;39.30;99491.54;4403395;79;28619;-85
2022/03/15 23:49:00;;;;;;;55.45;27.32;;;;;;;13.11;39.15;99490.33;4399408;79;28477;-89
2022/03/15 23:55:03;;;;;;;56.85;26.40;;;;;;;13.25;39.18;99482.28;4365482;79;28443;-85
